sensor_id;sensor_type;location;lat;lon;timestamp;pressure;altitude;pressure_sealevel;temperature;humidity
9525;BME280;15940;48.734;9.112;2023-05-12T00:01:20;96243.56;;;10.56;88.89
9525;BME280;15940;48.734;9.112;2023-05-12T00:03:47;96237.91;;;10.66;89.40
9525;BME280;15940;48.734;9.112;2023-05-12T00:06:14;96241.34;;;10.72;89.11
9525;BME280;15940;48.734;9.112;2023-05-12T00:08:41;96235.69;;;10.75;89.26
9525;BME280;15940;48.734;9.112;2023-05-12T00:11:08;96238.16;;;10.68;89.53
9525;BME280;15940;48.734;9.112;2023-05-12T00:13:35;96235.94;;;10.66;89.36
9525;BME280;15940;48.734;9.112;2023-05-12T00:16:04;96231.78;;;10.54;89.16
9525;BME280;15940;48.734;9.112;2023-05-12T00:18:31;96235.44;;;10.51;89.63
9525;BME280;15940;48.734;9.112;2023-05-12T00:20:58;96230.75;;;10.51;89.92
9525;BME280;15940;48.734;9.112;2023-05-12T00:23:25;96230.03;;;10.56;90.32
9525;BME280;15940;48.734;9.112;2023-05-12T00:25:52;96225.34;;;10.51;90.41
9525;BME280;15940;48.734;9.112;2023-05-12T00:28:19;96220.94;;;10.48;90.20
9525;BME280;15940;48.734;9.112;2023-05-12T00:30:46;96223.38;;;10.57;90.86
9525;BME280;15940;48.734;9.112;2023-05-12T00:33:14;96227.06;;;10.66;90.99
9525;BME280;15940;48.734;9.112;2023-05-12T00:35:42;96223.63;;;10.65;91.20
9525;BME280;15940;48.734;9.112;2023-05-12T00:38:10;96219.91;;;10.79;90.87
9525;BME280;15940;48.734;9.112;2023-05-12T00:40:37;96220.63;;;10.80;90.32
9525;BME280;15940;48.734;9.112;2023-05-12T00:43:04;96208.31;;;10.84;90.07
9525;BME280;15940;48.734;9.112;2023-05-12T00:45:31;96219.41;;;10.86;89.89
9525;BME280;15940;48.734;9.112;2023-05-12T00:47:58;96219.63;;;10.88;89.41
9525;BME280;15940;48.734;9.112;2023-05-12T00:50:26;96225.09;;;10.83;89.53
9525;BME280;15940;48.734;9.112;2023-05-12T00:52:53;96229.50;;;10.92;89.60
9525;BME280;15940;48.734;9.112;2023-05-12T00:55:20;96219.63;;;10.94;89.34
9525;BME280;15940;48.734;9.112;2023-05-12T00:57:47;96218.66;;;10.92;89.71
9525;BME280;15940;48.734;9.112;2023-05-12T01:00:15;96222.81;;;10.98;89.56
9525;BME280;15940;48.734;9.112;2023-05-12T01:02:42;96214.94;;;10.95;89.91
9525;BME280;15940;48.734;9.112;2023-05-12T01:05:10;96223.81;;;10.95;89.53
9525;BME280;15940;48.734;9.112;2023-05-12T01:07:39;96220.63;;;10.91;89.23
9525;BME280;15940;48.734;9.112;2023-05-12T01:10:17;96217.44;;;10.87;89.65
9525;BME280;15940;48.734;9.112;2023-05-12T01:12:44;96224.59;;;10.90;90.22
9525;BME280;15940;48.734;9.112;2023-05-12T01:15:11;96219.63;;;10.88;89.60
9525;BME280;15940;48.734;9.112;2023-05-12T01:17:41;96224.59;;;10.90;89.79
9525;BME280;15940;48.734;9.112;2023-05-12T01:20:11;96220.41;;;10.83;90.16
9525;BME280;15940;48.734;9.112;2023-05-12T01:22:42;96218.44;;;10.84;90.18
9525;BME280;15940;48.734;9.112;2023-05-12T01:25:10;96220.63;;;10.91;90.29
9525;BME280;15940;48.734;9.112;2023-05-12T01:27:40;96218.94;;;10.82;90.07
9525;BME280;15940;48.734;9.112;2023-05-12T01:30:15;96215.47;;;10.82;90.60
9525;BME280;15940;48.734;9.112;2023-05-12T01:32:43;96216.69;;;10.86;90.16
9525;BME280;15940;48.734;9.112;2023-05-12T01:35:10;96216.22;;;10.82;90.47
9525;BME280;15940;48.734;9.112;2023-05-12T01:37:37;96219.63;;;10.88;90.22
9525;BME280;15940;48.734;9.112;2023-05-12T01:40:06;96215.69;;;10.90;90.13
9525;BME280;15940;48.734;9.112;2023-05-12T01:42:33;96218.91;;;10.88;89.75
9525;BME280;15940;48.734;9.112;2023-05-12T01:45:01;96218.41;;;10.90;89.95
9525;BME280;15940;48.734;9.112;2023-05-12T01:47:28;96213.25;;;10.86;89.51
9525;BME280;15940;48.734;9.112;2023-05-12T01:49:56;96216.44;;;10.79;90.27
9525;BME280;15940;48.734;9.112;2023-05-12T01:52:23;96220.16;;;10.81;90.45
9525;BME280;15940;48.734;9.112;2023-05-12T01:54:50;96221.13;;;10.84;90.33
9525;BME280;15940;48.734;9.112;2023-05-12T01:57:17;96211.78;;;10.91;90.36
9525;BME280;15940;48.734;9.112;2023-05-12T01:59:44;96215.22;;;10.91;90.14
9525;BME280;15940;48.734;9.112;2023-05-12T02:02:13;96217.47;;;10.81;89.29
9525;BME280;15940;48.734;9.112;2023-05-12T02:04:39;96217.94;;;10.80;90.11
9525;BME280;15940;48.734;9.112;2023-05-12T02:07:06;96215.19;;;10.97;90.09
9525;BME280;15940;48.734;9.112;2023-05-12T02:09:33;96215.97;;;10.80;89.48
9525;BME280;15940;48.734;9.112;2023-05-12T02:12:00;96221.13;;;10.78;90.59
9525;BME280;15940;48.734;9.112;2023-05-12T02:14:28;96216.72;;;10.75;90.44
9525;BME280;15940;48.734;9.112;2023-05-12T02:16:55;96219.44;;;10.75;90.65
9525;BME280;15940;48.734;9.112;2023-05-12T02:19:24;96218.44;;;10.78;91.04
9525;BME280;15940;48.734;9.112;2023-05-12T02:21:50;96219.91;;;10.85;90.67
9525;BME280;15940;48.734;9.112;2023-05-12T02:24:17;96213.50;;;10.77;91.00
9525;BME280;15940;48.734;9.112;2023-05-12T02:26:45;96215.97;;;10.80;90.80
9525;BME280;15940;48.734;9.112;2023-05-12T02:29:12;96211.53;;;10.83;90.49
9525;BME280;15940;48.734;9.112;2023-05-12T02:31:39;96210.53;;;10.86;90.11
9525;BME280;15940;48.734;9.112;2023-05-12T02:34:06;96217.47;;;10.81;90.13
9525;BME280;15940;48.734;9.112;2023-05-12T02:36:35;96208.34;;;10.73;90.15
9525;BME280;15940;48.734;9.112;2023-05-12T02:39:02;96216.97;;;10.72;91.03
9525;BME280;15940;48.734;9.112;2023-05-12T02:41:29;96210.59;;;10.58;90.46
9525;BME280;15940;48.734;9.112;2023-05-12T02:43:56;96206.66;;;10.65;91.55
9525;BME280;15940;48.734;9.112;2023-05-12T02:46:23;96218.72;;;10.64;91.55
9525;BME280;15940;48.734;9.112;2023-05-12T02:48:50;96207.88;;;10.58;91.37
9525;BME280;15940;48.734;9.112;2023-05-12T02:51:17;96208.13;;;10.54;92.20
9525;BME280;15940;48.734;9.112;2023-05-12T02:53:45;96203.19;;;10.64;91.94
9525;BME280;15940;48.734;9.112;2023-05-12T02:56:12;96212.28;;;10.67;91.34
9525;BME280;15940;48.734;9.112;2023-05-12T02:58:39;96209.81;;;10.69;91.38
9525;BME280;15940;48.734;9.112;2023-05-12T03:01:06;96212.78;;;10.65;91.41
9525;BME280;15940;48.734;9.112;2023-05-12T03:03:33;96201.00;;;10.63;91.33
9525;BME280;15940;48.734;9.112;2023-05-12T03:06:00;96212.28;;;10.61;91.70
9525;BME280;15940;48.734;9.112;2023-05-12T03:08:33;96208.84;;;10.61;91.38
9525;BME280;15940;48.734;9.112;2023-05-12T03:11:02;96211.28;;;10.70;91.97
9525;BME280;15940;48.734;9.112;2023-05-12T03:13:29;96213.78;;;10.73;91.28
9525;BME280;15940;48.734;9.112;2023-05-12T03:15:55;96218.22;;;10.65;91.15
9525;BME280;15940;48.734;9.112;2023-05-12T03:18:25;96207.88;;;10.64;90.76
9525;BME280;15940;48.734;9.112;2023-05-12T03:20:53;96216.00;;;10.47;91.46
9525;BME280;15940;48.734;9.112;2023-05-12T03:23:20;96218.00;;;10.52;91.10
9525;BME280;15940;48.734;9.112;2023-05-12T03:25:47;96216.50;;;10.56;92.10
9525;BME280;15940;48.734;9.112;2023-05-12T03:28:15;96211.56;;;10.49;91.44
9525;BME280;15940;48.734;9.112;2023-05-12T03:30:42;96217.22;;;10.51;92.26
9525;BME280;15940;48.734;9.112;2023-05-12T03:33:08;96218.72;;;10.47;92.62
9525;BME280;15940;48.734;9.112;2023-05-12T03:35:35;96214.75;;;10.59;92.42
9525;BME280;15940;48.734;9.112;2023-05-12T03:38:02;96220.19;;;10.65;91.75
9525;BME280;15940;48.734;9.112;2023-05-12T03:40:29;96220.19;;;10.53;91.24
9525;BME280;15940;48.734;9.112;2023-05-12T03:42:56;96217.25;;;10.46;91.39
9525;BME280;15940;48.734;9.112;2023-05-12T03:45:24;96207.41;;;10.54;92.74
9525;BME280;15940;48.734;9.112;2023-05-12T03:47:51;96210.31;;;10.67;92.13
9525;BME280;15940;48.734;9.112;2023-05-12T03:50:18;96204.41;;;10.69;92.09
9525;BME280;15940;48.734;9.112;2023-05-12T03:52:45;96194.56;;;10.66;91.70
9525;BME280;15940;48.734;9.112;2023-05-12T03:55:11;96208.84;;;10.72;91.69
9525;BME280;15940;48.734;9.112;2023-05-12T03:57:38;96203.44;;;10.66;91.57
9525;BME280;15940;48.734;9.112;2023-05-12T04:00:07;96202.19;;;10.67;91.87
9525;BME280;15940;48.734;9.112;2023-05-12T04:02:35;96199.72;;;10.69;91.69
9525;BME280;15940;48.734;9.112;2023-05-12T04:05:03;96199.72;;;10.69;91.55
9525;BME280;15940;48.734;9.112;2023-05-12T04:07:32;96201.22;;;10.65;91.38
9525;BME280;15940;48.734;9.112;2023-05-12T04:09:59;96203.94;;;10.59;91.63
9525;BME280;15940;48.734;9.112;2023-05-12T04:12:26;96204.66;;;10.59;91.99
9525;BME280;15940;48.734;9.112;2023-05-12T04:14:53;96203.19;;;10.58;92.29
9525;BME280;15940;48.734;9.112;2023-05-12T04:17:20;96201.22;;;10.59;92.08
9525;BME280;15940;48.734;9.112;2023-05-12T04:19:48;96206.41;;;10.63;92.05
9525;BME280;15940;48.734;9.112;2023-05-12T04:22:15;96207.84;;;10.69;92.10
9525;BME280;15940;48.734;9.112;2023-05-12T04:24:42;96203.19;;;10.70;91.64
9525;BME280;15940;48.734;9.112;2023-05-12T04:27:08;96209.31;;;10.76;91.98
9525;BME280;15940;48.734;9.112;2023-05-12T04:29:35;96205.16;;;10.80;91.60
9525;BME280;15940;48.734;9.112;2023-05-12T04:32:03;96216.44;;;10.84;91.39
9525;BME280;15940;48.734;9.112;2023-05-12T04:34:30;96217.44;;;10.76;91.26
9525;BME280;15940;48.734;9.112;2023-05-12T04:36:58;96212.53;;;10.74;90.90
9525;BME280;15940;48.734;9.112;2023-05-12T04:39:26;96209.09;;;10.74;91.11
9525;BME280;15940;48.734;9.112;2023-05-12T04:41:53;96219.94;;;10.68;91.04
9525;BME280;15940;48.734;9.112;2023-05-12T04:44:20;96212.28;;;10.61;91.17
9525;BME280;15940;48.734;9.112;2023-05-12T04:46:47;96221.66;;;10.71;91.94
9525;BME280;15940;48.734;9.112;2023-05-12T04:49:17;96223.88;;;10.73;91.06
9525;BME280;15940;48.734;9.112;2023-05-12T04:51:44;96222.13;;;10.75;91.82
9525;BME280;15940;48.734;9.112;2023-05-12T04:54:13;96231.50;;;10.74;92.04
9525;BME280;15940;48.734;9.112;2023-05-12T04:56:40;96231.25;;;10.72;91.38
9525;BME280;15940;48.734;9.112;2023-05-12T04:59:06;96229.25;;;10.84;91.83
9525;BME280;15940;48.734;9.112;2023-05-12T05:01:33;96226.31;;;10.82;91.44
9525;BME280;15940;48.734;9.112;2023-05-12T05:04:00;96231.97;;;10.84;91.38
9525;BME280;15940;48.734;9.112;2023-05-12T05:06:27;96229.25;;;10.84;91.61
9525;BME280;15940;48.734;9.112;2023-05-12T05:08:54;96223.84;;;10.84;91.46
9525;BME280;15940;48.734;9.112;2023-05-12T05:11:23;96227.28;;;10.79;90.69
9525;BME280;15940;48.734;9.112;2023-05-12T05:13:50;96235.44;;;10.73;91.38
9525;BME280;15940;48.734;9.112;2023-05-12T05:16:17;96233.47;;;10.68;91.37
9525;BME280;15940;48.734;9.112;2023-05-12T05:18:44;96233.97;;;10.67;91.46
9525;BME280;15940;48.734;9.112;2023-05-12T05:21:11;96231.75;;;10.65;92.00
9525;BME280;15940;48.734;9.112;2023-05-12T05:23:39;96238.88;;;10.68;92.02
9525;BME280;15940;48.734;9.112;2023-05-12T05:26:06;96241.59;;;10.68;92.21
9525;BME280;15940;48.734;9.112;2023-05-12T05:28:35;96234.19;;;10.69;92.26
9525;BME280;15940;48.734;9.112;2023-05-12T05:31:04;96239.13;;;10.70;91.60
9525;BME280;15940;48.734;9.112;2023-05-12T05:33:31;96248.50;;;10.75;91.79
9525;BME280;15940;48.734;9.112;2023-05-12T05:35:58;96249.47;;;10.72;91.39
9525;BME280;15940;48.734;9.112;2023-05-12T05:38:25;96252.19;;;10.83;91.74
9525;BME280;15940;48.734;9.112;2023-05-12T05:40:52;96255.59;;;10.89;91.68
9525;BME280;15940;48.734;9.112;2023-05-12T05:43:19;96255.84;;;10.97;91.34
9525;BME280;15940;48.734;9.112;2023-05-12T05:45:47;96255.59;;;10.95;90.80
9525;BME280;15940;48.734;9.112;2023-05-12T05:48:14;96254.38;;;10.90;90.19
9525;BME280;15940;48.734;9.112;2023-05-12T05:50:41;96265.47;;;10.92;90.42
9525;BME280;15940;48.734;9.112;2023-05-12T05:53:08;96260.03;;;10.92;89.94
9525;BME280;15940;48.734;9.112;2023-05-12T05:55:35;96257.81;;;10.96;89.71
9525;BME280;15940;48.734;9.112;2023-05-12T05:58:02;96254.59;;;10.98;89.82
9525;BME280;15940;48.734;9.112;2023-05-12T06:00:30;96255.09;;;10.96;89.60
9525;BME280;15940;48.734;9.112;2023-05-12T06:02:58;96257.53;;;11.05;90.18
9525;BME280;15940;48.734;9.112;2023-05-12T06:05:25;96261.00;;;11.11;89.73
9525;BME280;15940;48.734;9.112;2023-05-12T06:07:52;96255.34;;;11.09;89.02
9525;BME280;15940;48.734;9.112;2023-05-12T06:10:19;96263.19;;;11.19;89.20
9525;BME280;15940;48.734;9.112;2023-05-12T06:12:46;96265.66;;;11.11;88.89
9525;BME280;15940;48.734;9.112;2023-05-12T06:15:14;96265.09;;;11.35;89.40
9525;BME280;15940;48.734;9.112;2023-05-12T06:17:41;96268.31;;;11.33;88.75
9525;BME280;15940;48.734;9.112;2023-05-12T06:20:11;96270.50;;;11.40;88.64
9525;BME280;15940;48.734;9.112;2023-05-12T06:22:38;96277.66;;;11.43;87.98
9525;BME280;15940;48.734;9.112;2023-05-12T06:25:07;96271.47;;;11.43;87.95
9525;BME280;15940;48.734;9.112;2023-05-12T06:27:34;96271.00;;;11.39;87.21
9525;BME280;15940;48.734;9.112;2023-05-12T06:30:01;96273.69;;;11.44;87.15
9525;BME280;15940;48.734;9.112;2023-05-12T06:32:28;96278.38;;;11.44;86.64
9525;BME280;15940;48.734;9.112;2023-05-12T06:34:55;96275.44;;;11.48;86.57
9525;BME280;15940;48.734;9.112;2023-05-12T06:37:24;96279.13;;;11.44;86.36
9525;BME280;15940;48.734;9.112;2023-05-12T06:39:50;96272.44;;;11.45;86.72
9525;BME280;15940;48.734;9.112;2023-05-12T06:42:17;96279.63;;;11.49;86.91
9525;BME280;15940;48.734;9.112;2023-05-12T06:44:44;96275.16;;;11.45;86.93
9525;BME280;15940;48.734;9.112;2023-05-12T06:47:11;96277.63;;;11.49;86.63
9525;BME280;15940;48.734;9.112;2023-05-12T06:49:38;96281.31;;;11.52;86.70
9525;BME280;15940;48.734;9.112;2023-05-12T06:52:06;96279.56;;;11.54;86.49
9525;BME280;15940;48.734;9.112;2023-05-12T06:54:34;96279.53;;;11.65;85.83
9525;BME280;15940;48.734;9.112;2023-05-12T06:57:02;96276.28;;;11.72;85.68
9525;BME280;15940;48.734;9.112;2023-05-12T06:59:29;96280.00;;;11.75;85.63
9525;BME280;15940;48.734;9.112;2023-05-12T07:01:56;96280.97;;;11.83;85.27
9525;BME280;15940;48.734;9.112;2023-05-12T07:04:23;96283.19;;;11.85;85.60
9525;BME280;15940;48.734;9.112;2023-05-12T07:06:51;96281.69;;;11.84;85.47
9525;BME280;15940;48.734;9.112;2023-05-12T07:09:18;96278.00;;;11.87;86.46
9525;BME280;15940;48.734;9.112;2023-05-12T07:11:47;96275.00;;;11.90;86.18
9525;BME280;15940;48.734;9.112;2023-05-12T07:14:14;96280.91;;;11.94;85.89
9525;BME280;15940;48.734;9.112;2023-05-12T07:16:41;96279.13;;;12.02;85.90
9525;BME280;15940;48.734;9.112;2023-05-12T07:19:08;96278.13;;;12.06;85.00
9525;BME280;15940;48.734;9.112;2023-05-12T07:21:34;96276.38;;;12.08;85.40
9525;BME280;15940;48.734;9.112;2023-05-12T07:24:02;96276.38;;;12.08;84.77
9525;BME280;15940;48.734;9.112;2023-05-12T07:26:30;96279.81;;;12.14;85.24
9525;BME280;15940;48.734;9.112;2023-05-12T07:28:59;96271.66;;;12.14;85.23
9525;BME280;15940;48.734;9.112;2023-05-12T07:31:27;96273.13;;;12.15;85.84
9525;BME280;15940;48.734;9.112;2023-05-12T07:33:54;96275.06;;;12.20;85.54
9525;BME280;15940;48.734;9.112;2023-05-12T07:36:21;96277.97;;;12.34;86.45
9525;BME280;15940;48.734;9.112;2023-05-12T07:38:48;96277.88;;;12.45;86.39
9525;BME280;15940;48.734;9.112;2023-05-12T07:41:15;96276.91;;;12.72;85.96
9525;BME280;15940;48.734;9.112;2023-05-12T07:43:42;96275.66;;;13.03;84.80
9525;BME280;15940;48.734;9.112;2023-05-12T07:46:10;96281.16;;;13.22;82.05
9525;BME280;15940;48.734;9.112;2023-05-12T07:48:37;96281.47;;;13.13;81.02
9525;BME280;15940;48.734;9.112;2023-05-12T07:51:05;96279.13;;;13.28;81.35
9525;BME280;15940;48.734;9.112;2023-05-12T07:53:32;96274.34;;;13.10;78.73
9525;BME280;15940;48.734;9.112;2023-05-12T07:55:59;96267.88;;;13.13;80.29
9525;BME280;15940;48.734;9.112;2023-05-12T07:58:26;96278.13;;;13.01;78.46
9525;BME280;15940;48.734;9.112;2023-05-12T08:00:53;96263.53;;;12.80;80.14
9525;BME280;15940;48.734;9.112;2023-05-12T08:03:23;96272.44;;;12.75;81.68
9525;BME280;15940;48.734;9.112;2023-05-12T08:05:50;96264.75;;;12.79;80.92
9525;BME280;15940;48.734;9.112;2023-05-12T08:08:17;96276.09;;;12.83;81.79
9525;BME280;15940;48.734;9.112;2023-05-12T08:10:44;96274.81;;;12.90;81.80
9525;BME280;15940;48.734;9.112;2023-05-12T08:13:11;96279.63;;;13.02;81.22
9525;BME280;15940;48.734;9.112;2023-05-12T08:15:38;96276.75;;;13.19;81.23
9525;BME280;15940;48.734;9.112;2023-05-12T08:18:05;96273.84;;;13.36;80.47
9525;BME280;15940;48.734;9.112;2023-05-12T08:20:33;96278.28;;;13.39;80.15
9525;BME280;15940;48.734;9.112;2023-05-12T08:23:00;96274.81;;;13.38;79.11
9525;BME280;15940;48.734;9.112;2023-05-12T08:25:27;96270.78;;;13.64;77.93
9525;BME280;15940;48.734;9.112;2023-05-12T08:27:55;96268.75;;;13.70;76.17
9525;BME280;15940;48.734;9.112;2023-05-12T08:30:22;96273.41;;;13.94;76.48
9525;BME280;15940;48.734;9.112;2023-05-12T08:32:49;96275.81;;;14.16;75.91
9525;BME280;15940;48.734;9.112;2023-05-12T08:35:16;96276.34;;;14.15;74.52
9525;BME280;15940;48.734;9.112;2023-05-12T08:37:45;96278.41;;;14.09;75.24
9525;BME280;15940;48.734;9.112;2023-05-12T08:40:17;96281.41;;;13.86;75.54
9525;BME280;15940;48.734;9.112;2023-05-12T08:42:51;96284.34;;;13.69;77.00
9525;BME280;15940;48.734;9.112;2023-05-12T08:45:23;96284.50;;;13.58;76.71
9525;BME280;15940;48.734;9.112;2023-05-12T08:47:50;96283.75;;;13.33;76.50
9525;BME280;15940;48.734;9.112;2023-05-12T08:50:21;96283.69;;;13.14;76.86
9525;BME280;15940;48.734;9.112;2023-05-12T08:52:50;96285.59;;;12.95;77.71
9525;BME280;15940;48.734;9.112;2023-05-12T08:55:18;96282.69;;;12.87;78.37
9525;BME280;15940;48.734;9.112;2023-05-12T08:57:46;96287.88;;;12.91;78.36
9525;BME280;15940;48.734;9.112;2023-05-12T09:00:14;96296.44;;;13.01;79.33
9525;BME280;15940;48.734;9.112;2023-05-12T09:02:42;96288.47;;;13.08;79.01
9525;BME280;15940;48.734;9.112;2023-05-12T09:05:09;96286.97;;;13.07;79.10
9525;BME280;15940;48.734;9.112;2023-05-12T09:07:42;96287.22;;;13.09;78.60
9525;BME280;15940;48.734;9.112;2023-05-12T09:10:15;96290.16;;;13.11;78.16
9525;BME280;15940;48.734;9.112;2023-05-12T09:12:45;96286.81;;;13.24;78.84
9525;BME280;15940;48.734;9.112;2023-05-12T09:15:19;96285.81;;;13.27;79.47
9525;BME280;15940;48.734;9.112;2023-05-12T09:17:49;96289.00;;;13.31;79.20
9525;BME280;15940;48.734;9.112;2023-05-12T09:20:16;96289.59;;;13.43;78.86
9525;BME280;15940;48.734;9.112;2023-05-12T09:22:44;96286.88;;;13.43;78.15
9525;BME280;15940;48.734;9.112;2023-05-12T09:25:17;96289.44;;;13.35;77.87
9525;BME280;15940;48.734;9.112;2023-05-12T09:27:47;96292.44;;;13.32;77.37
9525;BME280;15940;48.734;9.112;2023-05-12T09:30:15;96289.50;;;13.30;77.99
9525;BME280;15940;48.734;9.112;2023-05-12T09:32:41;96294.44;;;13.31;76.92
9525;BME280;15940;48.734;9.112;2023-05-12T09:35:10;96284.72;;;13.36;77.34
9525;BME280;15940;48.734;9.112;2023-05-12T09:37:38;96283.06;;;13.52;77.16
9525;BME280;15940;48.734;9.112;2023-05-12T09:40:07;96287.78;;;13.51;75.75
9525;BME280;15940;48.734;9.112;2023-05-12T09:42:37;96286.47;;;13.58;76.16
9525;BME280;15940;48.734;9.112;2023-05-12T09:45:06;96285.09;;;13.70;75.90
9525;BME280;15940;48.734;9.112;2023-05-12T09:47:35;96290.38;;;13.81;74.76
9525;BME280;15940;48.734;9.112;2023-05-12T09:50:03;96290.38;;;14.00;74.48
9525;BME280;15940;48.734;9.112;2023-05-12T09:52:35;96288.75;;;14.29;73.50
9525;BME280;15940;48.734;9.112;2023-05-12T09:55:08;96288.91;;;14.37;72.83
9525;BME280;15940;48.734;9.112;2023-05-12T09:57:39;96276.94;;;14.58;72.79
9525;BME280;15940;48.734;9.112;2023-05-12T10:00:09;96282.66;;;14.74;73.38
9525;BME280;15940;48.734;9.112;2023-05-12T10:02:40;96275.66;;;14.78;71.80
9525;BME280;15940;48.734;9.112;2023-05-12T10:05:12;96277.25;;;15.00;70.50
9525;BME280;15940;48.734;9.112;2023-05-12T10:07:42;96274.31;;;15.11;69.82
9525;BME280;15940;48.734;9.112;2023-05-12T10:10:11;96280.09;;;15.34;69.41
9525;BME280;15940;48.734;9.112;2023-05-12T10:12:41;96279.38;;;15.34;69.12
9525;BME280;15940;48.734;9.112;2023-05-12T10:15:09;96283.47;;;15.27;69.17
9525;BME280;15940;48.734;9.112;2023-05-12T10:17:39;96281.56;;;15.22;70.29
9525;BME280;15940;48.734;9.112;2023-05-12T10:20:09;96276.53;;;15.00;68.68
9525;BME280;15940;48.734;9.112;2023-05-12T10:22:38;96280.72;;;15.01;68.98
9525;BME280;15940;48.734;9.112;2023-05-12T10:25:07;96280.50;;;15.12;70.32
9525;BME280;15940;48.734;9.112;2023-05-12T10:27:34;96279.03;;;15.24;70.90
9525;BME280;15940;48.734;9.112;2023-05-12T10:30:06;96281.78;;;15.24;69.36
9525;BME280;15940;48.734;9.112;2023-05-12T10:32:33;96282.50;;;15.25;69.61
9525;BME280;15940;48.734;9.112;2023-05-12T10:35:07;96285.34;;;15.32;71.18
9525;BME280;15940;48.734;9.112;2023-05-12T10:37:35;96284.19;;;15.28;68.48
9525;BME280;15940;48.734;9.112;2023-05-12T10:40:04;96276.22;;;15.30;69.28
9525;BME280;15940;48.734;9.112;2023-05-12T10:42:37;96279.88;;;15.32;69.49
9525;BME280;15940;48.734;9.112;2023-05-12T10:45:17;96271.19;;;15.34;68.46
9525;BME280;15940;48.734;9.112;2023-05-12T10:47:46;96272.88;;;15.37;69.84
9525;BME280;15940;48.734;9.112;2023-05-12T10:50:13;96275.16;;;15.33;69.17
9525;BME280;15940;48.734;9.112;2023-05-12T10:52:40;96272.63;;;15.35;70.20
9525;BME280;15940;48.734;9.112;2023-05-12T10:55:29;96267.63;;;15.39;69.60
9525;BME280;15940;48.734;9.112;2023-05-12T10:58:04;96271.41;;;15.36;69.83
9525;BME280;15940;48.734;9.112;2023-05-12T11:00:43;96261.22;;;15.23;67.91
9525;BME280;15940;48.734;9.112;2023-05-12T11:03:15;96276.72;;;15.15;66.92
9525;BME280;15940;48.734;9.112;2023-05-12T11:05:43;96278.19;;;15.03;68.75
9525;BME280;15940;48.734;9.112;2023-05-12T11:08:11;96277.38;;;15.08;67.13
9525;BME280;15940;48.734;9.112;2023-05-12T11:10:40;96263.81;;;15.02;69.67
9525;BME280;15940;48.734;9.112;2023-05-12T11:13:08;96286.78;;;14.94;70.15
9525;BME280;15940;48.734;9.112;2023-05-12T11:15:36;96283.50;;;14.82;70.83
9525;BME280;15940;48.734;9.112;2023-05-12T11:18:04;96279.66;;;14.58;71.15
9525;BME280;15940;48.734;9.112;2023-05-12T11:20:31;96287.63;;;14.38;71.94
9525;BME280;15940;48.734;9.112;2023-05-12T11:22:58;96289.66;;;14.18;73.57
9525;BME280;15940;48.734;9.112;2023-05-12T11:25:25;96298.72;;;14.08;75.59
9525;BME280;15940;48.734;9.112;2023-05-12T11:27:53;96298.78;;;14.02;76.58
9525;BME280;15940;48.734;9.112;2023-05-12T11:30:20;96302.69;;;13.88;76.66
9525;BME280;15940;48.734;9.112;2023-05-12T11:32:59;96300.03;;;13.82;76.91
9525;BME280;15940;48.734;9.112;2023-05-12T11:35:29;96297.31;;;13.82;77.62
9525;BME280;15940;48.734;9.112;2023-05-12T11:37:57;96302.25;;;13.84;77.83
9525;BME280;15940;48.734;9.112;2023-05-12T11:40:23;96300.47;;;13.86;77.25
9525;BME280;15940;48.734;9.112;2023-05-12T11:42:50;96313.28;;;13.91;78.88
9525;BME280;15940;48.734;9.112;2023-05-12T11:45:21;96308.94;;;14.01;79.63
9525;BME280;15940;48.734;9.112;2023-05-12T11:47:50;96306.56;;;13.92;80.80
9525;BME280;15940;48.734;9.112;2023-05-12T11:50:22;96312.63;;;13.85;82.12
9525;BME280;15940;48.734;9.112;2023-05-12T11:52:50;96319.44;;;13.73;82.73
9525;BME280;15940;48.734;9.112;2023-05-12T11:55:24;96320.31;;;13.62;84.17
9525;BME280;15940;48.734;9.112;2023-05-12T11:57:56;96318.41;;;13.57;85.26
9525;BME280;15940;48.734;9.112;2023-05-12T12:00:29;96319.34;;;13.60;85.91
9525;BME280;15940;48.734;9.112;2023-05-12T12:03:10;96315.44;;;13.55;84.88
9525;BME280;15940;48.734;9.112;2023-05-12T12:05:37;96326.03;;;13.59;85.48
9525;BME280;15940;48.734;9.112;2023-05-12T12:08:07;96331.25;;;13.57;85.43
9525;BME280;15940;48.734;9.112;2023-05-12T12:10:34;96334.44;;;13.61;86.76
9525;BME280;15940;48.734;9.112;2023-05-12T12:13:02;96329.16;;;13.68;85.73
9525;BME280;15940;48.734;9.112;2023-05-12T12:15:29;96340.56;;;13.67;85.28
9525;BME280;15940;48.734;9.112;2023-05-12T12:17:56;96324.78;;;13.60;85.00
9525;BME280;15940;48.734;9.112;2023-05-12T12:22:46;96334.56;;;13.50;85.68
9525;BME280;15940;48.734;9.112;2023-05-12T12:25:13;96334.13;;;13.46;85.74
9525;BME280;15940;48.734;9.112;2023-05-12T12:27:40;96337.84;;;13.42;84.73
9525;BME280;15940;48.734;9.112;2023-05-12T12:30:09;96334.19;;;13.34;83.76
9525;BME280;15940;48.734;9.112;2023-05-12T12:32:36;96337.50;;;13.27;83.57
9525;BME280;15940;48.734;9.112;2023-05-12T12:35:03;96335.41;;;13.39;84.32
9525;BME280;15940;48.734;9.112;2023-05-12T12:37:31;96341.91;;;13.55;84.46
9525;BME280;15940;48.734;9.112;2023-05-12T12:39:59;96336.13;;;13.64;83.53
9525;BME280;15940;48.734;9.112;2023-05-12T12:42:33;96338.44;;;13.79;84.04
9525;BME280;15940;48.734;9.112;2023-05-12T12:45:01;96327.56;;;13.97;85.29
9525;BME280;15940;48.734;9.112;2023-05-12T12:47:28;96328.31;;;14.17;84.83
9525;BME280;15940;48.734;9.112;2023-05-12T12:49:55;96334.06;;;14.32;84.49
9525;BME280;15940;48.734;9.112;2023-05-12T12:52:21;96333.00;;;14.35;82.27
9525;BME280;15940;48.734;9.112;2023-05-12T12:54:48;96338.59;;;14.43;83.21
9525;BME280;15940;48.734;9.112;2023-05-12T12:57:17;96331.09;;;14.49;82.61
9525;BME280;15940;48.734;9.112;2023-05-12T12:59:45;96332.94;;;14.60;83.19
9525;BME280;15940;48.734;9.112;2023-05-12T13:02:12;96322.06;;;14.73;82.34
9525;BME280;15940;48.734;9.112;2023-05-12T13:04:39;96326.03;;;15.04;82.72
9525;BME280;15940;48.734;9.112;2023-05-12T13:07:06;96325.34;;;15.17;78.99
9525;BME280;15940;48.734;9.112;2023-05-12T13:09:33;96329.53;;;15.31;79.25
9525;BME280;15940;48.734;9.112;2023-05-12T13:12:00;96330.91;;;15.37;77.40
9525;BME280;15940;48.734;9.112;2023-05-12T13:14:28;96323.47;;;15.38;75.27
9525;BME280;15940;48.734;9.112;2023-05-12T13:16:55;96324.72;;;15.50;76.42